createdAt,value
2023-02-12T00:01:18.977Z,31.85
2023-02-12T00:03:45.651Z,29.45
2023-02-12T00:06:15.512Z,29.20
2023-02-12T00:08:42.941Z,31.15
2023-02-12T00:11:18.469Z,30.30
2023-02-12T00:13:45.402Z,29.55
2023-02-12T00:16:18.106Z,29.25
2023-02-12T00:18:45.928Z,28.55
2023-02-12T00:21:13.933Z,30.27
2023-02-12T00:23:43.752Z,29.73
2023-02-12T00:26:13.093Z,29.08
2023-02-12T00:28:39.924Z,28.00
2023-02-12T00:31:11.875Z,28.98
2023-02-12T00:33:38.792Z,29.27
2023-02-12T00:36:06.092Z,27.48
2023-02-12T00:38:32.939Z,29.42
2023-02-12T00:40:59.530Z,29.88
2023-02-12T00:43:26.052Z,29.00
2023-02-12T00:45:52.853Z,28.67
2023-02-12T00:48:19.554Z,28.63
2023-02-12T00:50:48.080Z,28.58
2023-02-12T00:53:15.006Z,25.10
2023-02-12T00:55:41.682Z,23.38
2023-02-12T00:58:08.514Z,24.17
2023-02-12T01:00:35.304Z,27.60
2023-02-12T01:03:02.186Z,27.08
2023-02-12T01:05:28.819Z,26.88
2023-02-12T01:07:55.330Z,25.23
2023-02-12T01:10:22.024Z,26.48
2023-02-12T01:15:30.330Z,25.70
2023-02-12T01:17:56.813Z,27.30
2023-02-12T01:20:25.004Z,26.48
2023-02-12T01:22:54.671Z,27.83
2023-02-12T01:25:21.226Z,27.33
2023-02-12T01:27:47.928Z,28.60
2023-02-12T01:30:15.915Z,27.98
2023-02-12T01:32:42.894Z,27.98
2023-02-12T01:35:10.474Z,27.80
2023-02-12T01:37:38.005Z,28.02
2023-02-12T01:40:06.585Z,25.30
2023-02-12T01:42:33.252Z,25.60
2023-02-12T01:45:14.732Z,26.95
2023-02-12T01:47:43.047Z,27.05
2023-02-12T01:50:13.017Z,27.15
2023-02-12T01:52:43.538Z,27.83
2023-02-12T01:55:10.877Z,27.80
2023-02-12T01:57:40.976Z,29.00
2023-02-12T02:00:16.721Z,28.85
2023-02-12T02:02:46.048Z,27.27
2023-02-12T02:05:15.380Z,25.60
2023-02-12T02:07:44.292Z,27.05
2023-02-12T02:10:11.067Z,28.08
2023-02-12T02:12:57.368Z,26.42
2023-02-12T02:15:26.507Z,27.73
2023-02-12T02:18:11.650Z,28.52
2023-02-12T02:21:36.509Z,30.15
2023-02-12T02:24:18.717Z,28.95
2023-02-12T02:27:10.321Z,28.25
2023-02-12T02:30:07.513Z,28.88
2023-02-12T02:32:50.523Z,28.20
2023-02-12T02:35:48.483Z,27.95
2023-02-12T02:38:26.221Z,28.70
2023-02-12T02:41:07.736Z,29.75
2023-02-12T02:43:50.220Z,28.92
2023-02-12T02:46:42.347Z,27.00
2023-02-12T02:49:17.486Z,28.80
2023-02-12T02:51:49.850Z,28.02
2023-02-12T02:54:21.416Z,26.98
2023-02-12T02:56:50.896Z,27.00
2023-02-12T02:59:23.470Z,28.45
2023-02-12T03:02:32.029Z,28.90
2023-02-12T03:05:04.304Z,30.10
2023-02-12T03:07:38.796Z,29.23
2023-02-12T03:10:12.283Z,30.30
2023-02-12T03:12:47.805Z,27.02
2023-02-12T03:15:16.879Z,28.55
2023-02-12T03:17:48.943Z,27.27
2023-02-12T03:20:24.523Z,28.92
2023-02-12T03:23:01.595Z,27.38
2023-02-12T03:25:38.643Z,27.42
2023-02-12T03:28:14.265Z,28.88
2023-02-12T03:31:18.023Z,29.00
2023-02-12T03:34:02.317Z,27.95
2023-02-12T03:36:34.676Z,27.70
2023-02-12T03:39:11.739Z,27.85
2023-02-12T03:41:49.572Z,29.10
2023-02-12T03:44:48.099Z,27.67
2023-02-12T03:47:47.192Z,25.27
2023-02-12T03:50:26.306Z,27.13
2023-02-12T03:52:52.872Z,27.08
2023-02-12T03:55:19.777Z,25.92
2023-02-12T03:58:01.253Z,26.92
2023-02-12T04:00:27.932Z,28.95
2023-02-12T04:02:55.098Z,27.63
2023-02-12T04:05:24.483Z,28.30
2023-02-12T04:07:52.662Z,28.65
2023-02-12T04:10:26.694Z,28.88
2023-02-12T04:13:20.673Z,29.00
2023-02-12T04:16:20.026Z,29.58
2023-02-12T04:18:51.780Z,27.02
2023-02-12T04:21:39.288Z,28.33
2023-02-12T04:24:13.611Z,28.08
2023-02-12T04:26:54.477Z,23.73
2023-02-12T04:30:02.533Z,28.00
2023-02-12T04:32:45.036Z,26.30
2023-02-12T04:35:17.591Z,26.98
2023-02-12T04:37:50.878Z,24.92
2023-02-12T04:40:19.996Z,25.83
2023-02-12T04:42:49.022Z,28.27
2023-02-12T04:45:33.495Z,25.77
2023-02-12T04:48:00.594Z,24.23
2023-02-12T04:50:37.515Z,26.75
2023-02-12T04:53:04.006Z,26.98
2023-02-12T04:55:30.459Z,27.88
2023-02-12T04:57:56.919Z,29.15
2023-02-12T05:00:23.598Z,30.17
2023-02-12T05:02:50.122Z,27.17
2023-02-12T05:05:17.066Z,26.60
2023-02-12T05:07:43.595Z,27.38
2023-02-12T05:10:10.423Z,30.92
2023-02-12T05:12:37.216Z,29.13
2023-02-12T05:15:03.795Z,29.98
2023-02-12T05:17:30.261Z,29.45
2023-02-12T05:19:56.752Z,28.45
2023-02-12T05:22:23.290Z,29.67
2023-02-12T05:24:49.797Z,28.50
2023-02-12T05:27:16.293Z,27.95
2023-02-12T05:29:42.866Z,23.35
2023-02-12T05:32:09.464Z,28.58
2023-02-12T05:34:36.641Z,29.08
2023-02-12T05:37:03.284Z,27.63
2023-02-12T05:39:29.793Z,27.73
2023-02-12T05:41:56.288Z,28.67
2023-02-12T05:44:22.818Z,30.13
2023-02-12T05:46:49.348Z,30.75
2023-02-12T05:49:15.891Z,31.85
2023-02-12T05:51:42.401Z,32.13
2023-02-12T05:54:10.361Z,31.15
2023-02-12T05:56:42.326Z,29.73
2023-02-12T05:59:14.648Z,30.27
2023-02-12T06:01:42.855Z,27.20
2023-02-12T06:04:14.548Z,29.00
2023-02-12T06:06:42.179Z,28.67
2023-02-12T06:09:10.559Z,29.90
2023-02-12T06:11:37.746Z,26.20
2023-02-12T06:14:06.181Z,30.30
2023-02-12T06:16:34.113Z,30.75
2023-02-12T06:19:03.391Z,30.52
2023-02-12T06:21:30.508Z,31.33
2023-02-12T06:23:57.055Z,30.55
2023-02-12T06:26:24.327Z,32.72
2023-02-12T06:28:51.479Z,31.92
2023-02-12T06:31:29.624Z,32.28
2023-02-12T06:33:57.863Z,30.48
2023-02-12T06:36:24.948Z,31.30
2023-02-12T06:38:52.341Z,31.48
2023-02-12T06:41:19.553Z,31.25
2023-02-12T06:43:46.119Z,31.73
2023-02-12T06:46:13.914Z,35.00
2023-02-12T06:48:41.077Z,32.80
2023-02-12T06:51:10.080Z,35.13
2023-02-12T06:53:37.341Z,32.25
2023-02-12T06:56:06.036Z,33.33
2023-02-12T06:58:32.914Z,33.00
2023-02-12T07:01:13.250Z,34.67
2023-02-12T07:03:41.175Z,33.90
2023-02-12T07:06:08.613Z,32.75
2023-02-12T07:08:38.028Z,33.17
2023-02-12T07:11:05.501Z,35.30
2023-02-12T07:13:34.836Z,34.75
2023-02-12T07:16:09.908Z,34.30
2023-02-12T07:18:37.600Z,35.88
2023-02-12T07:21:06.252Z,34.90
2023-02-12T07:23:33.485Z,31.73
2023-02-12T07:26:02.703Z,34.75
2023-02-12T07:28:29.323Z,33.42
2023-02-12T07:30:55.899Z,34.83
2023-02-12T07:33:22.399Z,33.72
2023-02-12T07:35:48.854Z,35.97
2023-02-12T07:38:15.464Z,36.47
2023-02-12T07:40:41.960Z,33.40
2023-02-12T07:43:08.493Z,36.22
2023-02-12T07:45:35.143Z,37.15
2023-02-12T07:48:01.655Z,32.17
2023-02-12T07:50:28.161Z,37.45
2023-02-12T07:52:54.671Z,34.28
2023-02-12T07:55:21.328Z,35.33
2023-02-12T07:57:47.778Z,33.33
2023-02-12T08:00:14.968Z,31.77
2023-02-12T08:02:41.567Z,32.58
2023-02-12T08:05:08.203Z,29.77
2023-02-12T08:07:34.899Z,33.67
2023-02-12T08:10:01.389Z,32.90
2023-02-12T08:12:27.881Z,31.85
2023-02-12T08:14:54.606Z,34.50
2023-02-12T08:17:21.090Z,33.92
2023-02-12T08:19:47.599Z,32.35
2023-02-12T08:22:14.052Z,32.33
2023-02-12T08:24:40.534Z,36.53
2023-02-12T08:27:07.061Z,33.53
2023-02-12T08:29:33.551Z,31.52
2023-02-12T08:32:02.391Z,35.22
2023-02-12T08:34:35.637Z,34.83
2023-02-12T08:37:04.302Z,34.63
2023-02-12T08:39:30.995Z,34.40
2023-02-12T08:41:59.335Z,32.63
2023-02-12T08:44:26.140Z,34.22
2023-02-12T08:46:53.336Z,27.70
2023-02-12T08:49:22.673Z,33.85
2023-02-12T08:51:51.975Z,34.50
2023-02-12T08:54:23.981Z,33.95
2023-02-12T08:56:54.136Z,32.72
2023-02-12T08:59:20.693Z,34.22
2023-02-12T09:01:50.602Z,34.75
2023-02-12T09:04:22.365Z,34.58
2023-02-12T09:06:50.020Z,31.75
2023-02-12T09:09:17.183Z,32.85
2023-02-12T09:11:44.746Z,33.80
2023-02-12T09:14:15.002Z,33.15
2023-02-12T09:16:42.413Z,32.53
2023-02-12T09:19:11.298Z,33.25
2023-02-12T09:21:37.800Z,32.30
2023-02-12T09:24:04.388Z,34.67
2023-02-12T09:26:31.220Z,30.88
2023-02-12T09:28:57.966Z,32.25
2023-02-12T09:31:27.266Z,34.22
2023-02-12T09:33:57.855Z,32.17
2023-02-12T09:36:24.509Z,29.27
2023-02-12T09:38:51.313Z,31.48
2023-02-12T09:41:20.643Z,30.20
2023-02-12T09:44:07.312Z,37.95
2023-02-12T09:46:39.263Z,29.52
2023-02-12T09:49:14.540Z,27.33
2023-02-12T09:54:14.246Z,26.05
2023-02-12T09:56:46.129Z,26.25
2023-02-12T09:59:22.816Z,24.75
2023-02-12T10:01:49.382Z,24.85
2023-02-12T10:04:16.059Z,26.35
2023-02-12T10:06:55.147Z,24.70
2023-02-12T10:09:33.800Z,25.27
2023-02-12T10:12:15.264Z,24.30
2023-02-12T10:14:51.237Z,21.95
2023-02-12T10:17:29.926Z,23.40
2023-02-12T10:20:05.723Z,24.38
2023-02-12T10:22:48.198Z,23.33
2023-02-12T10:25:44.223Z,23.98
2023-02-12T10:28:41.773Z,25.55
2023-02-12T10:31:13.207Z,24.42
2023-02-12T10:33:48.948Z,23.58
2023-02-12T10:36:39.845Z,22.63
2023-02-12T10:39:15.071Z,20.48
2023-02-12T10:42:14.696Z,20.88
2023-02-12T10:44:41.235Z,20.05
2023-02-12T10:47:18.602Z,22.20
2023-02-12T10:49:45.349Z,22.67
2023-02-12T10:52:21.936Z,22.95
2023-02-12T10:54:51.800Z,22.30
2023-02-12T10:57:22.627Z,21.58
2023-02-12T10:59:53.141Z,23.95
2023-02-12T11:02:28.722Z,23.38
2023-02-12T11:04:58.054Z,23.17
2023-02-12T11:07:25.679Z,21.95
2023-02-12T11:09:54.392Z,24.30
2023-02-12T11:12:32.489Z,24.08
2023-02-12T11:15:01.707Z,22.75
2023-02-12T11:18:02.730Z,23.15
2023-02-12T11:20:41.233Z,23.98
2023-02-12T11:23:39.564Z,23.17
2023-02-12T11:26:18.159Z,22.38
2023-02-12T11:28:57.169Z,22.50
2023-02-12T11:31:29.264Z,22.40
2023-02-12T11:34:04.709Z,22.75
2023-02-12T11:36:35.250Z,22.02
2023-02-12T11:39:02.319Z,22.75
2023-02-12T11:41:34.531Z,21.77
2023-02-12T11:44:02.774Z,21.85
2023-02-12T11:46:29.363Z,22.15
2023-02-12T11:48:57.683Z,23.73
2023-02-12T11:51:30.805Z,24.65
2023-02-12T11:54:03.614Z,21.88
2023-02-12T11:56:45.912Z,23.05
2023-02-12T11:59:27.373Z,20.38
2023-02-12T12:01:57.825Z,21.58
2023-02-12T12:04:29.596Z,19.85
2023-02-12T12:07:03.376Z,22.15
2023-02-12T12:10:05.294Z,20.75
2023-02-12T12:12:31.750Z,22.65
2023-02-12T12:15:26.030Z,20.83
2023-02-12T12:18:17.491Z,18.58
2023-02-12T12:20:55.394Z,18.90
2023-02-12T12:24:00.826Z,20.65
2023-02-12T12:26:31.398Z,20.13
2023-02-12T12:29:06.592Z,20.25
2023-02-12T12:31:41.243Z,21.00
2023-02-12T12:34:07.724Z,22.30
2023-02-12T12:37:05.252Z,21.70
2023-02-12T12:39:56.784Z,19.95
2023-02-12T12:42:55.126Z,21.00
2023-02-12T12:45:40.403Z,20.67
2023-02-12T12:48:06.793Z,20.80
2023-02-12T12:50:52.104Z,21.27
2023-02-12T12:53:33.313Z,21.33
2023-02-12T12:56:11.724Z,22.17
2023-02-12T12:58:44.269Z,22.00
2023-02-12T13:01:17.033Z,22.48
2023-02-12T13:04:08.773Z,22.90
2023-02-12T13:06:47.415Z,23.08
2023-02-12T13:09:57.785Z,21.50
2023-02-12T13:12:36.232Z,23.25
2023-02-12T13:15:43.909Z,19.85
2023-02-12T13:18:43.688Z,22.73
2023-02-12T13:21:35.082Z,22.42
2023-02-12T13:24:29.586Z,21.77
2023-02-12T13:27:00.063Z,22.65
2023-02-12T13:29:32.220Z,22.08
2023-02-12T13:32:51.178Z,23.50
2023-02-12T13:35:25.650Z,21.08
2023-02-12T13:37:57.112Z,22.90
2023-02-12T13:40:26.608Z,22.20
2023-02-12T13:43:09.054Z,22.35
2023-02-12T13:45:35.642Z,23.38
2023-02-12T13:48:23.320Z,24.10
2023-02-12T13:51:08.002Z,23.48
2023-02-12T13:53:52.890Z,21.95
2023-02-12T13:56:31.539Z,22.57
2023-02-12T13:59:00.421Z,24.13
2023-02-12T14:01:53.035Z,23.45
2023-02-12T14:04:19.513Z,21.23
2023-02-12T14:07:08.075Z,21.60
2023-02-12T14:09:40.529Z,21.00
2023-02-12T14:12:12.022Z,21.65
2023-02-12T14:14:50.563Z,23.67
2023-02-12T14:17:29.291Z,21.63
2023-02-12T14:20:05.834Z,21.35
2023-02-12T14:22:32.248Z,23.38
2023-02-12T14:25:01.621Z,24.08
2023-02-12T14:27:36.224Z,22.92
2023-02-12T14:30:11.625Z,21.33
2023-02-12T14:32:46.968Z,22.63
2023-02-12T14:38:02.539Z,21.40
2023-02-12T14:40:35.014Z,23.95
2023-02-12T14:43:23.121Z,22.60
2023-02-12T14:45:49.997Z,22.85
2023-02-12T14:48:48.885Z,24.08
2023-02-12T14:51:22.817Z,21.70
2023-02-12T14:53:51.527Z,22.90
2023-02-12T14:56:23.150Z,22.25
2023-02-12T14:58:52.850Z,20.20
2023-02-12T15:01:30.593Z,21.77
2023-02-12T15:04:02.070Z,21.50
2023-02-12T15:06:38.828Z,21.95
2023-02-12T15:09:52.248Z,21.63
2023-02-12T15:12:32.785Z,19.83
2023-02-12T15:15:13.001Z,19.25
2023-02-12T15:17:42.177Z,20.00
2023-02-12T15:20:21.070Z,19.15
2023-02-12T15:22:47.587Z,19.42
2023-02-12T15:25:24.669Z,18.65
2023-02-12T15:28:23.508Z,16.83
2023-02-12T15:30:52.305Z,20.40
2023-02-12T15:33:29.313Z,18.58
2023-02-12T15:35:57.069Z,18.00
2023-02-12T15:38:39.850Z,19.65
2023-02-12T15:41:06.738Z,19.98
2023-02-12T15:43:35.764Z,18.98
2023-02-12T15:46:04.295Z,20.30
2023-02-12T15:48:33.678Z,17.25
2023-02-12T15:51:24.903Z,17.85
2023-02-12T15:53:51.953Z,20.10
2023-02-12T15:56:22.073Z,18.80
2023-02-12T15:58:52.426Z,18.05
2023-02-12T16:01:24.998Z,18.83
2023-02-12T16:03:55.313Z,20.92
2023-02-12T16:06:23.822Z,18.23
2023-02-12T16:09:02.493Z,18.35
2023-02-12T16:11:30.763Z,18.15
2023-02-12T16:14:03.803Z,19.98
2023-02-12T16:16:44.751Z,19.13
2023-02-12T16:19:30.197Z,17.38
2023-02-12T16:21:56.646Z,17.30
2023-02-12T16:24:26.662Z,16.08
2023-02-12T16:26:54.146Z,18.23
2023-02-12T16:29:21.083Z,18.83
2023-02-12T16:32:01.812Z,19.33
2023-02-12T16:34:38.680Z,18.50
2023-02-12T16:37:49.981Z,17.83
2023-02-12T16:40:16.448Z,17.65
2023-02-12T16:42:49.131Z,18.58
2023-02-12T16:45:28.004Z,16.88
2023-02-12T16:48:00.360Z,17.17
2023-02-12T16:50:34.034Z,17.85
2023-02-12T16:53:04.135Z,17.70
2023-02-12T16:55:31.201Z,19.35
2023-02-12T16:57:57.722Z,18.00
2023-02-12T17:00:24.697Z,16.63
2023-02-12T17:02:53.750Z,19.38
2023-02-12T17:05:20.967Z,17.75
2023-02-12T17:07:47.453Z,18.00
2023-02-12T17:10:15.093Z,17.50
2023-02-12T17:12:49.797Z,18.27
2023-02-12T17:15:38.092Z,17.92
2023-02-12T17:18:04.714Z,17.33
2023-02-12T17:20:31.169Z,18.02
2023-02-12T17:22:59.409Z,18.67
2023-02-12T17:25:25.933Z,18.02
2023-02-12T17:27:52.409Z,18.98
2023-02-12T17:30:21.510Z,18.25
2023-02-12T17:32:49.663Z,19.40
2023-02-12T17:35:17.520Z,20.15
2023-02-12T17:37:44.901Z,19.30
2023-02-12T17:40:12.574Z,20.83
2023-02-12T17:42:39.169Z,20.13
2023-02-12T17:45:06.413Z,21.27
2023-02-12T17:47:39.598Z,20.50
2023-02-12T17:50:11.277Z,20.33
2023-02-12T17:52:37.812Z,21.63
2023-02-12T17:55:05.126Z,23.90
2023-02-12T17:57:32.074Z,20.13
2023-02-12T17:59:59.114Z,22.42
2023-02-12T18:02:25.796Z,21.33
2023-02-12T18:04:52.314Z,21.58
2023-02-12T18:07:18.788Z,23.10
2023-02-12T18:09:45.332Z,24.92
2023-02-12T18:12:11.850Z,24.02
2023-02-12T18:14:38.412Z,23.52
2023-02-12T18:17:04.863Z,23.50
2023-02-12T18:19:31.455Z,24.30
2023-02-12T18:21:57.932Z,24.35
2023-02-12T18:24:24.505Z,25.38
2023-02-12T18:26:51.204Z,25.08
2023-02-12T18:29:17.762Z,21.88
2023-02-12T18:31:44.768Z,24.05
2023-02-12T18:34:11.326Z,24.95
2023-02-12T18:36:37.882Z,26.00
2023-02-12T18:39:04.556Z,26.23
2023-02-12T18:41:32.768Z,24.75
2023-02-12T18:43:59.776Z,26.83
2023-02-12T18:46:29.148Z,26.38
2023-02-12T18:48:56.381Z,25.92
2023-02-12T18:51:26.119Z,28.27
2023-02-12T18:53:56.750Z,24.75
2023-02-12T18:56:23.525Z,27.00
2023-02-12T18:58:55.912Z,28.08
2023-02-12T19:01:23.017Z,26.73
2023-02-12T19:03:58.741Z,25.98
2023-02-12T19:06:25.807Z,27.73
2023-02-12T19:08:57.016Z,26.30
2023-02-12T19:11:23.896Z,25.10
2023-02-12T19:13:50.792Z,29.25
2023-02-12T19:16:20.020Z,26.98
2023-02-12T19:18:56.128Z,27.98
2023-02-12T19:21:26.079Z,25.60
2023-02-12T19:23:54.950Z,31.50
2023-02-12T19:26:22.392Z,26.70
2023-02-12T19:28:48.864Z,28.10
2023-02-12T19:31:23.923Z,27.98
2023-02-12T19:33:54.042Z,27.67
2023-02-12T19:36:20.906Z,30.35
2023-02-12T19:38:49.213Z,28.77
2023-02-12T19:41:19.183Z,26.80
2023-02-12T19:43:46.897Z,30.33
2023-02-12T19:46:16.253Z,27.58
2023-02-12T19:48:43.577Z,27.05
2023-02-12T19:51:21.356Z,26.20
2023-02-12T19:53:48.664Z,27.00
2023-02-12T19:56:16.247Z,28.58
2023-02-12T19:58:43.015Z,28.25
2023-02-12T20:01:12.244Z,28.45
2023-02-12T20:03:39.223Z,28.85
2023-02-12T20:06:14.128Z,26.48
2023-02-12T20:08:42.123Z,26.83
2023-02-12T20:11:14.197Z,28.48
2023-02-12T20:13:41.079Z,26.40
2023-02-12T20:16:13.182Z,27.42
2023-02-12T20:18:39.678Z,26.13
2023-02-12T20:21:28.246Z,29.35
2023-02-12T20:23:55.503Z,26.98
2023-02-12T20:26:22.765Z,27.02
2023-02-12T20:28:50.551Z,27.33
2023-02-12T20:31:20.992Z,25.38
2023-02-12T20:33:48.178Z,27.75
2023-02-12T20:36:15.263Z,26.38
2023-02-12T20:38:44.688Z,29.30
2023-02-12T20:41:11.730Z,27.60
2023-02-12T20:43:39.001Z,26.52
2023-02-12T20:46:07.411Z,29.00
2023-02-12T20:48:34.671Z,26.70
2023-02-12T20:51:04.064Z,26.58
2023-02-12T20:53:30.705Z,28.52
2023-02-12T20:56:10.696Z,28.83
2023-02-12T20:58:38.780Z,26.15
2023-02-12T21:01:07.677Z,25.60
2023-02-12T21:03:34.931Z,26.23
2023-02-12T21:06:01.885Z,26.60
2023-02-12T21:08:28.869Z,28.88
2023-02-12T21:11:03.122Z,27.60
2023-02-12T21:13:29.749Z,28.38
2023-02-12T21:16:08.144Z,25.38
2023-02-12T21:18:34.822Z,25.55
2023-02-12T21:21:06.222Z,24.73
2023-02-12T21:23:34.706Z,27.83
2023-02-12T21:26:06.511Z,25.67
2023-02-12T21:28:33.378Z,22.75
2023-02-12T21:31:13.660Z,24.77
2023-02-12T21:33:42.515Z,23.80
2023-02-12T21:36:17.899Z,23.77
2023-02-12T21:38:46.357Z,23.98
2023-02-12T21:41:30.854Z,24.40
2023-02-12T21:44:01.345Z,24.10
2023-02-12T21:46:28.725Z,23.58
2023-02-12T21:48:55.888Z,24.10
2023-02-12T21:51:24.867Z,24.25
2023-02-12T21:53:53.835Z,22.80
2023-02-12T21:56:20.886Z,22.17
2023-02-12T21:58:48.535Z,22.98
2023-02-12T22:01:24.658Z,22.85
2023-02-12T22:03:51.934Z,23.10
2023-02-12T22:06:20.122Z,22.92
2023-02-12T22:08:46.821Z,23.63
2023-02-12T22:11:14.492Z,23.55
2023-02-12T22:13:41.481Z,21.52
2023-02-12T22:16:09.274Z,22.42
2023-02-12T22:18:36.364Z,25.00
2023-02-12T22:21:05.036Z,25.65
2023-02-12T22:23:32.215Z,21.92
2023-02-12T22:26:10.917Z,22.88
2023-02-12T22:28:45.604Z,22.63
2023-02-12T22:31:14.953Z,22.08
2023-02-12T22:33:41.428Z,26.05
2023-02-12T22:36:09.826Z,22.70
2023-02-12T22:38:37.578Z,23.42
2023-02-12T22:41:05.531Z,21.88
2023-02-12T22:43:33.563Z,22.38
2023-02-12T22:46:00.663Z,22.92
2023-02-12T22:48:28.502Z,21.17
2023-02-12T22:50:56.856Z,21.38
2023-02-12T22:53:24.855Z,20.42
2023-02-12T22:55:51.778Z,21.08
2023-02-12T22:58:18.693Z,22.00
2023-02-12T23:00:45.184Z,21.10
2023-02-12T23:03:11.693Z,20.85
2023-02-12T23:05:39.097Z,21.55
2023-02-12T23:08:06.736Z,22.15
2023-02-12T23:10:33.723Z,21.70
2023-02-12T23:13:02.176Z,20.88
2023-02-12T23:15:28.789Z,20.30
2023-02-12T23:17:55.311Z,22.25
2023-02-12T23:20:21.891Z,20.25
2023-02-12T23:22:48.356Z,19.40
2023-02-12T23:25:14.926Z,21.95
2023-02-12T23:27:41.397Z,20.25
2023-02-12T23:30:08.977Z,21.13
2023-02-12T23:32:35.469Z,20.85
2023-02-12T23:35:02.159Z,19.67
2023-02-12T23:37:28.598Z,19.92
2023-02-12T23:39:55.070Z,19.90
2023-02-12T23:42:21.519Z,20.75
2023-02-12T23:44:48.032Z,19.30
2023-02-12T23:47:14.476Z,19.80
2023-02-12T23:49:41.002Z,20.17
2023-02-12T23:52:07.625Z,19.15
2023-02-12T23:54:34.245Z,20.08
2023-02-12T23:57:00.704Z,21.58
2023-02-12T23:59:27.238Z,20.85
